sensor_id;sensor_type;location;lat;lon;timestamp;pressure;altitude;pressure_sealevel;temperature;humidity
64228;BME280;50546;49.146;10.616;2022-08-05T00:01:46;96000.47;;;25.88;44.06
64228;BME280;50546;49.146;10.616;2022-08-05T00:04:11;95994.09;;;25.91;43.72
64228;BME280;50546;49.146;10.616;2022-08-05T00:06:36;95999.00;;;25.84;43.79
64228;BME280;50546;49.146;10.616;2022-08-05T00:09:03;95993.13;;;25.82;43.83
64228;BME280;50546;49.146;10.616;2022-08-05T00:11:28;95996.78;;;25.75;44.21
64228;BME280;50546;49.146;10.616;2022-08-05T00:13:54;95997.53;;;25.76;44.11
64228;BME280;50546;49.146;10.616;2022-08-05T00:16:19;95998.16;;;25.63;44.55
64228;BME280;50546;49.146;10.616;2022-08-05T00:18:46;96002.91;;;25.63;44.50
64228;BME280;50546;49.146;10.616;2022-08-05T00:21:13;95988.38;;;25.59;44.28
64228;BME280;50546;49.146;10.616;2022-08-05T00:23:39;95995.88;;;25.58;44.63
64228;BME280;50546;49.146;10.616;2022-08-05T00:26:05;95985.34;;;25.53;44.60
64228;BME280;50546;49.146;10.616;2022-08-05T00:28:30;95990.06;;;25.53;44.95
64228;BME280;50546;49.146;10.616;2022-08-05T00:30:56;95981.19;;;25.41;45.21
64228;BME280;50546;49.146;10.616;2022-08-05T00:33:21;95976.81;;;25.44;44.94
64228;BME280;50546;49.146;10.616;2022-08-05T00:35:47;95973.72;;;25.42;44.97
64228;BME280;50546;49.146;10.616;2022-08-05T00:38:12;95981.31;;;25.34;45.22
64228;BME280;50546;49.146;10.616;2022-08-05T00:40:48;95981.16;;;25.21;45.25
64228;BME280;50546;49.146;10.616;2022-08-05T00:43:14;95984.75;;;25.18;45.14
64228;BME280;50546;49.146;10.616;2022-08-05T00:45:40;95985.00;;;25.28;45.29
64228;BME280;50546;49.146;10.616;2022-08-05T00:48:06;95978.91;;;25.16;45.57
64228;BME280;50546;49.146;10.616;2022-08-05T00:50:32;95974.09;;;25.20;45.50
64228;BME280;50546;49.146;10.616;2022-08-05T00:52:57;95973.47;;;25.09;45.75
64228;BME280;50546;49.146;10.616;2022-08-05T00:55:23;95969.63;;;25.03;45.79
64228;BME280;50546;49.146;10.616;2022-08-05T00:57:48;95964.69;;;24.91;45.81
64228;BME280;50546;49.146;10.616;2022-08-05T01:00:13;95961.94;;;24.91;45.66
64228;BME280;50546;49.146;10.616;2022-08-05T01:02:39;95963.03;;;24.97;46.08
64228;BME280;50546;49.146;10.616;2022-08-05T01:05:04;95965.66;;;25.04;45.66
64228;BME280;50546;49.146;10.616;2022-08-05T01:07:30;95967.16;;;25.09;45.53
64228;BME280;50546;49.146;10.616;2022-08-05T01:09:55;95966.28;;;25.15;45.32
64228;BME280;50546;49.146;10.616;2022-08-05T01:12:22;95965.81;;;25.20;45.58
64228;BME280;50546;49.146;10.616;2022-08-05T01:15:03;95958.09;;;25.08;45.76
64228;BME280;50546;49.146;10.616;2022-08-05T01:17:36;95955.34;;;25.08;45.44
64228;BME280;50546;49.146;10.616;2022-08-05T01:20:05;95956.47;;;25.14;45.30
64228;BME280;50546;49.146;10.616;2022-08-05T01:30:42;95960.31;;;24.93;45.82
64228;BME280;50546;49.146;10.616;2022-08-05T01:33:09;95952.72;;;25.01;45.63
64228;BME280;50546;49.146;10.616;2022-08-05T01:35:40;95959.75;;;25.06;45.72
64228;BME280;50546;49.146;10.616;2022-08-05T01:38:07;95955.34;;;25.08;45.51
64228;BME280;50546;49.146;10.616;2022-08-05T01:40:34;95958.44;;;24.87;46.30
64228;BME280;50546;49.146;10.616;2022-08-05T01:43:02;95960.03;;;24.61;47.02
64228;BME280;50546;49.146;10.616;2022-08-05T01:45:31;95965.56;;;24.30;48.08
64228;BME280;50546;49.146;10.616;2022-08-05T01:47:59;95965.44;;;24.10;48.21
64228;BME280;50546;49.146;10.616;2022-08-05T01:50:36;95966.41;;;23.93;48.90
64228;BME280;50546;49.146;10.616;2022-08-05T01:53:06;95962.53;;;23.90;48.76
64228;BME280;50546;49.146;10.616;2022-08-05T01:55:32;95961.47;;;23.81;49.22
64228;BME280;50546;49.146;10.616;2022-08-05T01:57:58;95963.88;;;23.78;49.47
64228;BME280;50546;49.146;10.616;2022-08-05T02:00:24;95966.22;;;23.76;49.22
64228;BME280;50546;49.146;10.616;2022-08-05T02:02:54;95965.94;;;23.67;50.00
64228;BME280;50546;49.146;10.616;2022-08-05T02:05:23;95968.44;;;23.51;50.07
64228;BME280;50546;49.146;10.616;2022-08-05T02:07:49;95975.09;;;23.53;50.02
64228;BME280;50546;49.146;10.616;2022-08-05T02:10:15;95985.66;;;23.59;50.04
64228;BME280;50546;49.146;10.616;2022-08-05T02:12:46;95977.69;;;23.71;49.63
64228;BME280;50546;49.146;10.616;2022-08-05T02:15:23;95985.56;;;23.69;49.55
64228;BME280;50546;49.146;10.616;2022-08-05T02:17:52;95993.28;;;23.82;49.59
64228;BME280;50546;49.146;10.616;2022-08-05T02:20:24;95999.81;;;23.95;49.16
64228;BME280;50546;49.146;10.616;2022-08-05T02:23:04;95995.34;;;24.08;48.86
64228;BME280;50546;49.146;10.616;2022-08-05T02:25:34;95998.41;;;24.14;48.60
64228;BME280;50546;49.146;10.616;2022-08-05T02:28:01;95996.72;;;24.23;48.32
64228;BME280;50546;49.146;10.616;2022-08-05T02:30:34;95988.47;;;24.23;48.38
64228;BME280;50546;49.146;10.616;2022-08-05T02:33:03;95988.94;;;24.18;48.34
64228;BME280;50546;49.146;10.616;2022-08-05T02:35:31;95991.41;;;24.09;48.60
64228;BME280;50546;49.146;10.616;2022-08-05T02:37:58;95980.78;;;24.11;48.11
64228;BME280;50546;49.146;10.616;2022-08-05T02:40:24;95972.03;;;24.47;45.91
64228;BME280;50546;49.146;10.616;2022-08-05T02:42:51;95975.47;;;24.82;45.33
64228;BME280;50546;49.146;10.616;2022-08-05T02:45:18;95972.63;;;25.12;44.78
64228;BME280;50546;49.146;10.616;2022-08-05T02:47:45;95980.22;;;25.32;44.17
64228;BME280;50546;49.146;10.616;2022-08-05T02:50:11;95969.81;;;25.39;43.93
64228;BME280;50546;49.146;10.616;2022-08-05T02:52:40;95957.63;;;25.60;43.51
64228;BME280;50546;49.146;10.616;2022-08-05T02:55:08;95965.47;;;25.62;43.53
64228;BME280;50546;49.146;10.616;2022-08-05T02:57:37;95968.78;;;25.53;43.94
64228;BME280;50546;49.146;10.616;2022-08-05T03:00:04;95964.94;;;25.00;45.91
64228;BME280;50546;49.146;10.616;2022-08-05T03:02:33;95969.34;;;24.70;46.95
64228;BME280;50546;49.146;10.616;2022-08-05T03:04:59;95984.13;;;24.26;48.31
64228;BME280;50546;49.146;10.616;2022-08-05T03:07:26;96033.91;;;23.25;50.51
64228;BME280;50546;49.146;10.616;2022-08-05T03:09:51;96053.75;;;22.95;51.79
64228;BME280;50546;49.146;10.616;2022-08-05T03:12:37;96024.03;;;22.72;52.32
64228;BME280;50546;49.146;10.616;2022-08-05T03:15:06;96055.09;;;22.62;52.32
64228;BME280;50546;49.146;10.616;2022-08-05T03:17:31;96058.44;;;22.95;51.73
64228;BME280;50546;49.146;10.616;2022-08-05T03:19:57;96038.34;;;23.05;51.27
64228;BME280;50546;49.146;10.616;2022-08-05T03:22:23;96036.22;;;23.27;50.53
64228;BME280;50546;49.146;10.616;2022-08-05T03:24:49;96035.97;;;23.55;49.86
64228;BME280;50546;49.146;10.616;2022-08-05T03:27:14;96031.84;;;23.78;49.27
64228;BME280;50546;49.146;10.616;2022-08-05T03:29:41;96038.34;;;23.95;48.86
64228;BME280;50546;49.146;10.616;2022-08-05T03:32:09;96032.22;;;24.14;48.33
64228;BME280;50546;49.146;10.616;2022-08-05T03:34:36;96039.09;;;24.33;47.54
64228;BME280;50546;49.146;10.616;2022-08-05T03:37:02;96038.53;;;24.49;47.49
64228;BME280;50546;49.146;10.616;2022-08-05T03:39:28;96037.28;;;24.54;47.33
64228;BME280;50546;49.146;10.616;2022-08-05T03:41:54;96029.66;;;24.65;46.85
64228;BME280;50546;49.146;10.616;2022-08-05T03:44:20;96033.84;;;24.77;46.65
64228;BME280;50546;49.146;10.616;2022-08-05T03:46:45;96028.72;;;24.75;46.61
64228;BME280;50546;49.146;10.616;2022-08-05T03:49:10;96020.06;;;24.77;46.60
64228;BME280;50546;49.146;10.616;2022-08-05T03:51:42;96026.69;;;24.79;46.59
64228;BME280;50546;49.146;10.616;2022-08-05T03:54:22;96028.94;;;24.88;46.54
64228;BME280;50546;49.146;10.616;2022-08-05T03:56:49;96038.66;;;24.96;46.30
64228;BME280;50546;49.146;10.616;2022-08-05T03:59:23;96035.84;;;25.00;46.30
64228;BME280;50546;49.146;10.616;2022-08-05T04:01:50;96036.13;;;25.05;46.32
64228;BME280;50546;49.146;10.616;2022-08-05T04:04:19;96035.22;;;25.15;45.89
64228;BME280;50546;49.146;10.616;2022-08-05T04:06:45;96033.97;;;25.20;45.83
64228;BME280;50546;49.146;10.616;2022-08-05T04:09:11;96041.94;;;25.14;46.25
64228;BME280;50546;49.146;10.616;2022-08-05T04:11:38;96035.41;;;25.01;46.63
64228;BME280;50546;49.146;10.616;2022-08-05T04:14:04;96031.84;;;25.04;46.52
64228;BME280;50546;49.146;10.616;2022-08-05T04:16:31;96036.31;;;24.94;47.32
64228;BME280;50546;49.146;10.616;2022-08-05T04:18:57;96042.63;;;24.95;47.31
64228;BME280;50546;49.146;10.616;2022-08-05T04:21:22;96036.63;;;25.00;47.02
64228;BME280;50546;49.146;10.616;2022-08-05T04:23:48;96038.81;;;25.12;46.94
64228;BME280;50546;49.146;10.616;2022-08-05T04:26:14;96034.19;;;25.06;46.81
64228;BME280;50546;49.146;10.616;2022-08-05T04:28:39;96027.88;;;25.05;47.11
64228;BME280;50546;49.146;10.616;2022-08-05T04:31:04;96032.78;;;25.21;46.89
64228;BME280;50546;49.146;10.616;2022-08-05T04:33:30;96037.09;;;25.22;47.02
64228;BME280;50546;49.146;10.616;2022-08-05T04:35:55;96024.09;;;25.23;47.25
64228;BME280;50546;49.146;10.616;2022-08-05T04:38:21;96019.84;;;25.18;47.08
64228;BME280;50546;49.146;10.616;2022-08-05T04:40:46;96027.09;;;25.32;47.04
64228;BME280;50546;49.146;10.616;2022-08-05T04:43:11;96030.81;;;25.21;47.74
64228;BME280;50546;49.146;10.616;2022-08-05T04:45:37;96034.81;;;25.17;47.56
64228;BME280;50546;49.146;10.616;2022-08-05T04:48:07;96047.84;;;25.16;47.18
64228;BME280;50546;49.146;10.616;2022-08-05T04:50:40;96052.59;;;25.12;47.56
64228;BME280;50546;49.146;10.616;2022-08-05T04:53:07;96063.53;;;25.19;47.82
64228;BME280;50546;49.146;10.616;2022-08-05T04:55:33;96073.38;;;25.20;47.95
64228;BME280;50546;49.146;10.616;2022-08-05T04:57:58;96084.16;;;25.08;47.87
64228;BME280;50546;49.146;10.616;2022-08-05T05:00:23;96098.06;;;25.01;48.20
64228;BME280;50546;49.146;10.616;2022-08-05T05:02:49;96101.28;;;24.95;48.27
64228;BME280;50546;49.146;10.616;2022-08-05T05:05:14;96110.34;;;24.96;48.53
64228;BME280;50546;49.146;10.616;2022-08-05T05:07:39;96113.19;;;24.89;48.51
64228;BME280;50546;49.146;10.616;2022-08-05T05:10:05;96118.31;;;24.87;48.63
64228;BME280;50546;49.146;10.616;2022-08-05T05:12:31;96126.19;;;24.88;48.99
64228;BME280;50546;49.146;10.616;2022-08-05T05:14:56;96117.06;;;24.95;49.44
64228;BME280;50546;49.146;10.616;2022-08-05T05:17:21;96119.72;;;25.02;48.96
64228;BME280;50546;49.146;10.616;2022-08-05T05:19:47;96118.50;;;25.03;48.97
64228;BME280;50546;49.146;10.616;2022-08-05T05:22:12;96121.59;;;25.05;49.09
64228;BME280;50546;49.146;10.616;2022-08-05T05:24:37;96097.03;;;25.18;49.49
64228;BME280;50546;49.146;10.616;2022-08-05T05:27:03;96094.13;;;25.29;49.20
64228;BME280;50546;49.146;10.616;2022-08-05T05:29:28;96097.00;;;25.45;48.08
64228;BME280;50546;49.146;10.616;2022-08-05T05:31:53;96096.56;;;25.50;47.84
64228;BME280;50546;49.146;10.616;2022-08-05T05:34:21;96092.22;;;25.73;47.95
64228;BME280;50546;49.146;10.616;2022-08-05T05:36:46;96086.94;;;26.05;47.49
64228;BME280;50546;49.146;10.616;2022-08-05T05:39:11;96090.00;;;26.11;47.01
64228;BME280;50546;49.146;10.616;2022-08-05T05:41:37;96097.09;;;26.12;46.81
64228;BME280;50546;49.146;10.616;2022-08-05T05:44:02;96099.72;;;26.19;46.60
64228;BME280;50546;49.146;10.616;2022-08-05T05:46:28;96100.41;;;26.43;46.01
64228;BME280;50546;49.146;10.616;2022-08-05T05:48:53;96113.31;;;26.30;46.34
64228;BME280;50546;49.146;10.616;2022-08-05T05:51:22;96133.13;;;26.05;46.94
64228;BME280;50546;49.146;10.616;2022-08-05T05:53:49;96150.47;;;26.05;47.31
64228;BME280;50546;49.146;10.616;2022-08-05T05:56:14;96153.88;;;26.13;47.19
64228;BME280;50546;49.146;10.616;2022-08-05T05:58:40;96155.34;;;26.17;46.70
64228;BME280;50546;49.146;10.616;2022-08-05T06:01:05;96149.44;;;25.96;47.48
64228;BME280;50546;49.146;10.616;2022-08-05T06:03:30;96158.59;;;25.65;48.04
64228;BME280;50546;49.146;10.616;2022-08-05T06:05:56;96156.41;;;25.80;47.83
64228;BME280;50546;49.146;10.616;2022-08-05T06:08:21;96194.69;;;25.51;48.69
64228;BME280;50546;49.146;10.616;2022-08-05T06:10:46;96195.84;;;25.23;49.16
64228;BME280;50546;49.146;10.616;2022-08-05T06:13:11;96212.91;;;25.14;49.45
64228;BME280;50546;49.146;10.616;2022-08-05T06:15:37;96200.88;;;24.97;49.87
64228;BME280;50546;49.146;10.616;2022-08-05T06:18:02;96224.91;;;24.97;50.46
64228;BME280;50546;49.146;10.616;2022-08-05T06:20:28;96217.22;;;25.15;50.31
64228;BME280;50546;49.146;10.616;2022-08-05T06:22:53;96235.81;;;25.08;50.73
64228;BME280;50546;49.146;10.616;2022-08-05T06:25:18;96234.50;;;25.19;50.98
64228;BME280;50546;49.146;10.616;2022-08-05T06:27:44;96243.41;;;25.31;51.05
64228;BME280;50546;49.146;10.616;2022-08-05T06:30:09;96247.19;;;25.44;50.81
64228;BME280;50546;49.146;10.616;2022-08-05T06:32:40;96262.19;;;25.43;50.69
64228;BME280;50546;49.146;10.616;2022-08-05T06:35:05;96270.00;;;25.48;51.24
64228;BME280;50546;49.146;10.616;2022-08-05T06:37:31;96278.63;;;25.54;51.19
64228;BME280;50546;49.146;10.616;2022-08-05T06:39:56;96276.56;;;25.58;50.69
64228;BME280;50546;49.146;10.616;2022-08-05T06:42:21;96302.00;;;25.73;50.86
64228;BME280;50546;49.146;10.616;2022-08-05T06:44:47;96312.16;;;25.83;50.54
64228;BME280;50546;49.146;10.616;2022-08-05T06:47:12;96319.44;;;25.97;50.82
64228;BME280;50546;49.146;10.616;2022-08-05T06:49:37;96311.41;;;25.79;51.12
64228;BME280;50546;49.146;10.616;2022-08-05T06:52:03;96308.72;;;25.72;51.43
64228;BME280;50546;49.146;10.616;2022-08-05T06:54:28;96313.75;;;25.80;51.49
64228;BME280;50546;49.146;10.616;2022-08-05T06:56:53;96312.78;;;25.94;51.16
64228;BME280;50546;49.146;10.616;2022-08-05T06:59:19;96317.28;;;25.81;52.04
64228;BME280;50546;49.146;10.616;2022-08-05T07:01:44;96303.50;;;25.81;51.10
64228;BME280;50546;49.146;10.616;2022-08-05T07:04:09;96307.94;;;25.71;51.81
64228;BME280;50546;49.146;10.616;2022-08-05T07:06:35;96309.84;;;25.74;51.96
64228;BME280;50546;49.146;10.616;2022-08-05T07:09:00;96303.88;;;25.83;51.67
64228;BME280;50546;49.146;10.616;2022-08-05T07:11:25;96304.00;;;25.99;51.80
64228;BME280;50546;49.146;10.616;2022-08-05T07:13:52;96292.63;;;26.21;50.56
64228;BME280;50546;49.146;10.616;2022-08-05T07:16:36;96305.13;;;26.05;51.27
64228;BME280;50546;49.146;10.616;2022-08-05T07:19:18;96305.44;;;26.11;50.78
64228;BME280;50546;49.146;10.616;2022-08-05T07:21:46;96302.28;;;26.09;50.22
64228;BME280;50546;49.146;10.616;2022-08-05T07:24:11;96298.41;;;25.79;50.56
64228;BME280;50546;49.146;10.616;2022-08-05T07:26:37;96298.28;;;25.56;51.23
64228;BME280;50546;49.146;10.616;2022-08-05T07:29:03;96304.47;;;25.63;51.12
64228;BME280;50546;49.146;10.616;2022-08-05T07:31:28;96299.72;;;25.67;50.54
64228;BME280;50546;49.146;10.616;2022-08-05T07:33:53;96290.06;;;25.83;50.28
64228;BME280;50546;49.146;10.616;2022-08-05T07:36:18;96293.13;;;25.88;49.89
64228;BME280;50546;49.146;10.616;2022-08-05T07:38:44;96298.44;;;26.03;49.14
64228;BME280;50546;49.146;10.616;2022-08-05T07:41:14;96286.22;;;26.27;48.97
64228;BME280;50546;49.146;10.616;2022-08-05T07:43:40;96279.81;;;26.34;48.96
64228;BME280;50546;49.146;10.616;2022-08-05T07:46:05;96279.69;;;26.41;47.95
64228;BME280;50546;49.146;10.616;2022-08-05T07:48:30;96292.19;;;26.73;47.36
64228;BME280;50546;49.146;10.616;2022-08-05T07:50:56;96306.56;;;27.07;46.23
64228;BME280;50546;49.146;10.616;2022-08-05T07:53:21;96316.59;;;27.21;46.40
64228;BME280;50546;49.146;10.616;2022-08-05T07:55:46;96315.16;;;27.33;44.89
64228;BME280;50546;49.146;10.616;2022-08-05T07:58:11;96319.78;;;27.20;45.29
64228;BME280;50546;49.146;10.616;2022-08-05T08:00:37;96318.22;;;27.19;44.72
64228;BME280;50546;49.146;10.616;2022-08-05T08:03:02;96319.00;;;27.19;45.38
64228;BME280;50546;49.146;10.616;2022-08-05T08:05:27;96313.56;;;26.92;45.60
64228;BME280;50546;49.146;10.616;2022-08-05T08:07:53;96328.19;;;26.69;46.29
64228;BME280;50546;49.146;10.616;2022-08-05T08:10:22;96313.38;;;27.03;45.30
64228;BME280;50546;49.146;10.616;2022-08-05T08:12:48;96319.31;;;27.01;45.62
64228;BME280;50546;49.146;10.616;2022-08-05T08:15:15;96311.25;;;27.50;45.34
64228;BME280;50546;49.146;10.616;2022-08-05T08:17:40;96317.34;;;27.62;44.29
64228;BME280;50546;49.146;10.616;2022-08-05T08:20:06;96314.22;;;27.79;43.26
64228;BME280;50546;49.146;10.616;2022-08-05T08:22:31;96316.84;;;27.87;43.05
64228;BME280;50546;49.146;10.616;2022-08-05T08:24:57;96310.63;;;27.99;43.43
64228;BME280;50546;49.146;10.616;2022-08-05T08:27:22;96311.84;;;28.14;43.34
64228;BME280;50546;49.146;10.616;2022-08-05T08:29:47;96313.50;;;28.12;43.15
64228;BME280;50546;49.146;10.616;2022-08-05T08:32:13;96315.28;;;28.38;42.51
64228;BME280;50546;49.146;10.616;2022-08-05T08:34:38;96315.47;;;28.47;41.58
64228;BME280;50546;49.146;10.616;2022-08-05T08:37:04;96313.69;;;28.37;42.45
64228;BME280;50546;49.146;10.616;2022-08-05T08:39:29;96310.81;;;28.24;42.39
64228;BME280;50546;49.146;10.616;2022-08-05T08:41:55;96312.25;;;28.49;41.01
64228;BME280;50546;49.146;10.616;2022-08-05T08:44:22;96318.97;;;28.31;41.50
64228;BME280;50546;49.146;10.616;2022-08-05T08:46:48;96303.03;;;28.19;41.80
64228;BME280;50546;49.146;10.616;2022-08-05T08:49:14;96304.56;;;27.68;40.57
64228;BME280;50546;49.146;10.616;2022-08-05T08:51:42;96309.84;;;27.82;40.83
64228;BME280;50546;49.146;10.616;2022-08-05T08:54:10;96305.00;;;27.86;40.39
64228;BME280;50546;49.146;10.616;2022-08-05T08:56:39;96314.59;;;27.98;39.85
64228;BME280;50546;49.146;10.616;2022-08-05T08:59:04;96312.97;;;28.17;39.31
64228;BME280;50546;49.146;10.616;2022-08-05T09:01:31;96314.41;;;28.41;39.28
64228;BME280;50546;49.146;10.616;2022-08-05T09:03:57;96325.66;;;28.67;37.96
64228;BME280;50546;49.146;10.616;2022-08-05T09:06:26;96318.00;;;29.03;37.40
64228;BME280;50546;49.146;10.616;2022-08-05T09:08:52;96310.13;;;29.31;37.15
64228;BME280;50546;49.146;10.616;2022-08-05T09:11:17;96311.59;;;29.19;36.93
64228;BME280;50546;49.146;10.616;2022-08-05T09:13:43;96315.69;;;28.69;37.96
64228;BME280;50546;49.146;10.616;2022-08-05T09:16:08;96324.63;;;28.61;38.45
64228;BME280;50546;49.146;10.616;2022-08-05T09:18:35;96322.34;;;28.88;37.43
64228;BME280;50546;49.146;10.616;2022-08-05T09:21:01;96327.50;;;29.19;35.70
64228;BME280;50546;49.146;10.616;2022-08-05T09:23:27;96324.50;;;29.26;35.56
64228;BME280;50546;49.146;10.616;2022-08-05T09:26:05;96331.78;;;29.36;34.49
64228;BME280;50546;49.146;10.616;2022-08-05T09:28:32;96321.34;;;29.40;34.46
64228;BME280;50546;49.146;10.616;2022-08-05T09:31:06;96324.88;;;29.28;35.01
64228;BME280;50546;49.146;10.616;2022-08-05T09:33:46;96318.72;;;29.49;34.38
64228;BME280;50546;49.146;10.616;2022-08-05T09:36:13;96311.38;;;29.14;35.29
64228;BME280;50546;49.146;10.616;2022-08-05T09:38:54;96320.88;;;29.29;35.74
64228;BME280;50546;49.146;10.616;2022-08-05T09:41:20;96311.59;;;29.19;35.11
64228;BME280;50546;49.146;10.616;2022-08-05T09:43:45;96317.06;;;29.23;35.17
64228;BME280;50546;49.146;10.616;2022-08-05T09:46:25;96315.78;;;29.40;34.96
64228;BME280;50546;49.146;10.616;2022-08-05T09:48:51;96305.78;;;29.72;34.85
64228;BME280;50546;49.146;10.616;2022-08-05T09:51:29;96302.47;;;29.48;34.93
64228;BME280;50546;49.146;10.616;2022-08-05T09:53:55;96303.25;;;29.07;35.65
64228;BME280;50546;49.146;10.616;2022-08-05T09:56:30;96309.97;;;29.22;36.17
64228;BME280;50546;49.146;10.616;2022-08-05T09:59:09;96295.16;;;29.41;35.78
64228;BME280;50546;49.146;10.616;2022-08-05T10:01:37;96292.09;;;29.65;35.12
64228;BME280;50546;49.146;10.616;2022-08-05T10:06:35;96301.44;;;29.71;35.39
64228;BME280;50546;49.146;10.616;2022-08-05T10:09:11;96294.47;;;30.05;34.63
64228;BME280;50546;49.146;10.616;2022-08-05T10:11:38;96290.22;;;30.38;34.29
64228;BME280;50546;49.146;10.616;2022-08-05T10:16:49;96290.53;;;31.01;32.83
64228;BME280;50546;49.146;10.616;2022-08-05T10:19:15;96282.25;;;31.10;32.83
64228;BME280;50546;49.146;10.616;2022-08-05T10:21:40;96283.75;;;31.24;32.93
64228;BME280;50546;49.146;10.616;2022-08-05T10:24:07;96266.72;;;31.44;32.05
64228;BME280;50546;49.146;10.616;2022-08-05T10:26:32;96265.81;;;31.25;32.12
64228;BME280;50546;49.146;10.616;2022-08-05T10:28:58;96266.28;;;31.01;32.40
64228;BME280;50546;49.146;10.616;2022-08-05T10:31:23;96264.56;;;30.82;32.89
64228;BME280;50546;49.146;10.616;2022-08-05T10:33:49;96268.06;;;31.17;32.39
64228;BME280;50546;49.146;10.616;2022-08-05T10:36:14;96269.38;;;31.03;32.35
64228;BME280;50546;49.146;10.616;2022-08-05T10:38:43;96264.94;;;30.93;32.15
64228;BME280;50546;49.146;10.616;2022-08-05T10:41:16;96261.88;;;31.13;32.26
64228;BME280;50546;49.146;10.616;2022-08-05T10:43:56;96264.94;;;31.59;31.38
64228;BME280;50546;49.146;10.616;2022-08-05T10:46:22;96255.22;;;31.95;30.21
64228;BME280;50546;49.146;10.616;2022-08-05T10:48:49;96263.56;;;32.26;30.36
64228;BME280;50546;49.146;10.616;2022-08-05T10:51:20;96255.75;;;32.61;30.31
64228;BME280;50546;49.146;10.616;2022-08-05T10:54:01;96248.59;;;32.51;29.17
64228;BME280;50546;49.146;10.616;2022-08-05T10:56:28;96249.53;;;32.84;28.79
64228;BME280;50546;49.146;10.616;2022-08-05T11:01:35;96246.13;;;33.08;28.48
64228;BME280;50546;49.146;10.616;2022-08-05T11:04:12;96242.41;;;33.20;28.57
64228;BME280;50546;49.146;10.616;2022-08-05T11:07:05;96243.03;;;33.34;28.45
64228;BME280;50546;49.146;10.616;2022-08-05T11:09:52;96249.81;;;33.33;27.76
64228;BME280;50546;49.146;10.616;2022-08-05T11:15:06;96256.53;;;33.87;27.33
64228;BME280;50546;49.146;10.616;2022-08-05T11:17:33;96246.44;;;34.22;27.23
64228;BME280;50546;49.146;10.616;2022-08-05T11:20:02;96241.63;;;33.90;27.28
64228;BME280;50546;49.146;10.616;2022-08-05T11:22:45;96246.03;;;34.15;27.29
64228;BME280;50546;49.146;10.616;2022-08-05T11:25:33;96250.41;;;34.40;26.51
64228;BME280;50546;49.146;10.616;2022-08-05T11:33:25;96252.66;;;34.26;26.43
64228;BME280;50546;49.146;10.616;2022-08-05T11:35:52;96256.72;;;34.16;26.29
64228;BME280;50546;49.146;10.616;2022-08-05T11:41:17;96252.03;;;33.89;26.98
64228;BME280;50546;49.146;10.616;2022-08-05T11:43:59;96255.44;;;33.93;26.60
64228;BME280;50546;49.146;10.616;2022-08-05T11:46:28;96252.56;;;34.12;27.08
64228;BME280;50546;49.146;10.616;2022-08-05T11:48:55;96260.81;;;34.06;26.53
64228;BME280;50546;49.146;10.616;2022-08-05T11:51:22;96259.75;;;34.04;26.72
64228;BME280;50546;49.146;10.616;2022-08-05T11:53:48;96253.94;;;34.16;26.30
64228;BME280;50546;49.146;10.616;2022-08-05T11:56:13;96254.59;;;34.35;26.03
64228;BME280;50546;49.146;10.616;2022-08-05T11:58:44;96252.72;;;34.41;25.85
64228;BME280;50546;49.146;10.616;2022-08-05T12:01:11;96248.09;;;34.62;26.02
64228;BME280;50546;49.146;10.616;2022-08-05T12:03:45;96250.53;;;34.69;25.48
64228;BME280;50546;49.146;10.616;2022-08-05T12:06:12;96243.75;;;34.61;25.45
64228;BME280;50546;49.146;10.616;2022-08-05T12:11:07;96242.03;;;33.97;26.57
64228;BME280;50546;49.146;10.616;2022-08-05T12:13:33;96242.75;;;34.16;25.92
64228;BME280;50546;49.146;10.616;2022-08-05T12:15:59;96237.94;;;34.41;26.15
64228;BME280;50546;49.146;10.616;2022-08-05T12:18:33;96239.78;;;34.44;26.18
64228;BME280;50546;49.146;10.616;2022-08-05T12:21:09;96233.09;;;34.51;26.38
64228;BME280;50546;49.146;10.616;2022-08-05T12:23:34;96235.59;;;33.82;26.40
64228;BME280;50546;49.146;10.616;2022-08-05T12:26:00;96238.47;;;33.54;27.15
64228;BME280;50546;49.146;10.616;2022-08-05T12:28:33;96231.19;;;33.48;27.03
64228;BME280;50546;49.146;10.616;2022-08-05T12:30:59;96240.50;;;33.54;27.31
64228;BME280;50546;49.146;10.616;2022-08-05T12:33:24;96235.94;;;33.75;27.15
64228;BME280;50546;49.146;10.616;2022-08-05T12:35:50;96233.22;;;34.23;26.78
64228;BME280;50546;49.146;10.616;2022-08-05T12:38:16;96226.69;;;34.74;25.82
64228;BME280;50546;49.146;10.616;2022-08-05T12:40:41;96227.41;;;34.84;25.86
64228;BME280;50546;49.146;10.616;2022-08-05T12:43:06;96224.94;;;35.01;25.52
64228;BME280;50546;49.146;10.616;2022-08-05T12:45:32;96228.50;;;34.62;26.17
64228;BME280;50546;49.146;10.616;2022-08-05T12:47:57;96229.34;;;34.54;26.79
64228;BME280;50546;49.146;10.616;2022-08-05T12:50:22;96231.47;;;34.83;26.21
64228;BME280;50546;49.146;10.616;2022-08-05T12:52:55;96222.38;;;34.88;25.39
64228;BME280;50546;49.146;10.616;2022-08-05T12:55:22;96221.69;;;33.97;26.66
64228;BME280;50546;49.146;10.616;2022-08-05T12:57:47;96220.19;;;33.87;26.81
64228;BME280;50546;49.146;10.616;2022-08-05T13:00:20;96215.78;;;33.95;26.82
64228;BME280;50546;49.146;10.616;2022-08-05T13:02:46;96215.59;;;33.74;27.08
64228;BME280;50546;49.146;10.616;2022-08-05T13:05:11;96215.88;;;33.76;26.81
64228;BME280;50546;49.146;10.616;2022-08-05T13:07:38;96220.50;;;33.89;26.68
64228;BME280;50546;49.146;10.616;2022-08-05T13:10:09;96204.66;;;34.43;26.59
64228;BME280;50546;49.146;10.616;2022-08-05T13:12:38;96210.22;;;34.91;25.69
64228;BME280;50546;49.146;10.616;2022-08-05T13:15:03;96206.00;;;34.71;25.54
64228;BME280;50546;49.146;10.616;2022-08-05T13:17:30;96202.69;;;34.34;25.86
64228;BME280;50546;49.146;10.616;2022-08-05T13:20:09;96200.38;;;34.33;26.51
64228;BME280;50546;49.146;10.616;2022-08-05T13:22:40;96193.13;;;34.26;26.26